Time;durP1;ratioP1;P1;durP2;ratioP2;P2;SDS_P1;SDS_P2;PMS_P1;PMS_P2;Temp;Humidity;BMP_temperature;BMP_pressure;BME280_temperature;BME280_humidity;BME280_pressure;Samples;Min_cycle;Max_cycle;Signal;HPM_P1;HPM_P2
2022/02/01 00:03:48;;;;;;;2.30;1.70;;;1.30;99.90;;;;;;5031787;28;20956;-58
2022/02/01 00:06:28;;;;;;;3.57;1.90;;;1.30;99.90;;;;;;5047128;28;20431;-58
2022/02/01 00:09:08;;;;;;;4.00;1.67;;;1.30;99.90;;;;;;5042216;28;20483;-54
2022/02/01 00:11:50;;;;;;;;;;;;;;;;;;;;;
2022/02/01 00:14:32;;;;;;;12.53;1.83;;;1.30;99.90;;;;;;5045862;28;20498;-54
2022/02/01 00:38:32;;;;;;;3.13;1.83;;;1.40;99.90;;;;;;5032544;28;20445;-57
2022/02/01 00:41:04;;;;;;;2.90;2.00;;;1.40;99.90;;;;;;5035740;28;20443;-57
2022/02/01 00:43:30;;;;;;;3.73;2.20;;;1.40;99.90;;;;;;5035686;28;20516;-56
2022/02/01 00:46:00;;;;;;;4.63;1.80;;;1.30;99.90;;;;;;5033747;28;20423;-58
2022/02/01 00:48:26;;;;;;;3.63;2.37;;;1.40;99.90;;;;;;5041503;28;20424;-57
2022/02/01 00:50:52;;;;;;;3.83;1.80;;;1.40;99.90;;;;;;5049306;28;20427;-54
2022/02/01 00:53:22;;;;;;;3.27;2.20;;;1.30;99.90;;;;;;5055700;28;20452;-59
2022/02/01 00:55:47;;;;;;;7.80;2.53;;;1.30;99.90;;;;;;5065683;28;20673;-59
2022/02/01 00:58:13;;;;;;;2.90;2.20;;;1.40;99.90;;;;;;5057482;28;20440;-58
2022/02/01 01:00:38;;;;;;;3.63;2.43;;;1.40;99.90;;;;;;5051260;28;20273;-57
2022/02/01 01:03:04;;;;;;;2.67;2.03;;;1.40;99.90;;;;;;5045376;28;20181;-61
2022/02/01 01:05:30;;;;;;;5.60;2.33;;;1.30;99.90;;;;;;5056975;28;20209;-58
2022/02/01 01:07:55;;;;;;;2.77;1.93;;;1.30;99.90;;;;;;5050146;28;20186;-59
2022/02/01 01:10:21;;;;;;;4.93;2.10;;;1.40;99.90;;;;;;5062065;28;20238;-57
2022/02/01 01:13:12;;;;;;;10.60;2.37;;;1.40;99.90;;;;;;5053405;28;20209;-61
2022/02/01 01:15:42;;;;;;;7.20;2.30;;;1.40;99.90;;;;;;5070242;28;20257;-60
2022/02/01 01:45:11;;;;;;;1.90;1.73;;;1.40;99.90;;;;;;5040304;28;20453;-57
2022/02/01 01:53:13;;;;;;;3.93;1.70;;;1.40;99.90;;;;;;5044020;28;20439;-57
2022/02/01 01:55:42;;;;;;;2.10;1.90;;;1.40;99.90;;;;;;5048291;28;20437;-57
2022/02/01 01:58:09;;;;;;;3.60;1.90;;;1.30;99.90;;;;;;5044817;28;20801;-55
2022/02/01 02:03:12;;;;;;;2.40;1.63;;;1.40;99.90;;;;;;5037168;28;20416;-55
2022/02/01 02:05:38;;;;;;;4.00;1.90;;;1.30;99.90;;;;;;5047930;28;20566;-57
2022/02/01 02:08:04;;;;;;;11.13;2.07;;;1.40;99.90;;;;;;5036803;28;20197;-57
2022/02/01 02:10:35;;;;;;;3.63;1.70;;;1.30;99.90;;;;;;5046426;28;20196;-57
2022/02/01 02:15:52;;;;;;;2.17;2.00;;;1.30;99.90;;;;;;5049297;28;20471;-57
2022/02/01 02:18:18;;;;;;;7.67;1.73;;;1.40;99.90;;;;;;5042372;28;20442;-57
2022/02/01 02:20:51;;;;;;;3.80;2.13;;;1.40;99.90;;;;;;5039330;28;20473;-55
2022/02/01 02:23:17;;;;;;;3.17;1.70;;;1.40;99.90;;;;;;5042034;28;20463;-57
2022/02/01 02:25:43;;;;;;;2.93;2.00;;;1.40;99.90;;;;;;5046059;28;20434;-55
2022/02/01 02:28:13;;;;;;;3.57;2.10;;;1.40;99.90;;;;;;5043683;28;20485;-57
2022/02/01 02:30:39;;;;;;;8.27;2.03;;;1.40;99.90;;;;;;5039999;28;20456;-57
2022/02/01 02:33:09;;;;;;;2.40;1.90;;;1.40;99.90;;;;;;5042064;28;20428;-58
2022/02/01 02:35:40;;;;;;;4.80;1.70;;;1.40;99.90;;;;;;5061574;22;20613;-58
2022/02/01 02:38:12;;;;;;;4.73;1.70;;;1.40;99.90;;;;;;5016405;28;20521;-59
2022/02/01 02:45:59;;;;;;;6.17;1.70;;;1.30;99.90;;;;;;5026095;28;21007;-59
2022/02/01 02:48:25;;;;;;;5.33;2.10;;;1.40;99.90;;;;;;5027435;28;20429;-58
2022/02/01 02:50:51;;;;;;;4.33;2.03;;;1.40;99.90;;;;;;5018532;28;20187;-59
2022/02/01 02:53:17;;;;;;;2.80;1.93;;;1.40;99.90;;;;;;5021017;28;20692;-59
2022/02/01 02:55:42;;;;;;;4.33;1.97;;;1.30;99.90;;;;;;5019724;28;20717;-59
2022/02/01 02:58:08;;;;;;;3.60;2.10;;;1.30;99.90;;;;;;5021960;28;20183;-59
2022/02/01 03:00:34;;;;;;;9.57;2.30;;;1.40;99.90;;;;;;5023391;28;20739;-59
2022/02/01 03:03:01;;;;;;;3.73;1.90;;;1.30;99.90;;;;;;5024433;28;20678;-58
2022/02/01 03:05:27;;;;;;;9.90;2.37;;;1.30;99.90;;;;;;5017898;28;20998;-59
2022/02/01 03:07:53;;;;;;;7.70;2.17;;;1.30;99.90;;;;;;5018996;28;20431;-59
2022/02/01 03:10:18;;;;;;;3.53;2.00;;;1.30;99.90;;;;;;5009429;28;20814;-59
2022/02/01 03:13:31;;;;;;;8.07;2.00;;;1.30;99.90;;;;;;5017703;28;20177;-59
2022/02/01 03:20:40;;;;;;;3.20;1.73;;;1.30;99.90;;;;;;5018493;28;20260;-60
2022/02/01 03:23:05;;;;;;;6.50;2.40;;;1.30;99.90;;;;;;5017552;28;20430;-60
2022/02/01 03:25:31;;;;;;;4.70;2.10;;;1.20;99.90;;;;;;5022936;28;20225;-59
2022/02/01 03:27:57;;;;;;;3.90;1.93;;;1.30;99.90;;;;;;5017067;28;20865;-59
2022/02/01 03:30:22;;;;;;;8.23;2.40;;;1.20;99.90;;;;;;5018554;28;20182;-59
2022/02/01 03:32:49;;;;;;;7.97;3.03;;;1.20;99.90;;;;;;5022152;28;20241;-59
2022/02/01 03:35:15;;;;;;;4.63;2.10;;;1.30;99.90;;;;;;5021247;28;20214;-59
2022/02/01 03:37:41;;;;;;;6.27;2.10;;;1.30;99.90;;;;;;5021830;28;20463;-59
2022/02/01 03:40:11;;;;;;;5.57;2.90;;;1.20;99.90;;;;;;5023044;28;20488;-59
2022/02/01 03:42:37;;;;;;;5.23;2.50;;;1.20;99.90;;;;;;5019016;28;20200;-59
2022/02/01 03:45:03;;;;;;;3.93;2.37;;;1.20;99.90;;;;;;5020895;28;20468;-59
2022/02/01 03:47:32;;;;;;;3.37;2.73;;;1.20;99.90;;;;;;5020381;28;20193;-59
2022/02/01 03:50:01;;;;;;;5.77;2.53;;;1.20;99.90;;;;;;5023086;28;20429;-58
2022/02/01 03:52:27;;;;;;;6.57;2.40;;;1.20;99.90;;;;;;5021043;28;20485;-59
2022/02/01 03:54:53;;;;;;;9.80;2.80;;;1.20;99.90;;;;;;5019256;28;20480;-60
2022/02/01 03:57:18;;;;;;;4.30;2.10;;;1.20;99.90;;;;;;5019167;28;21137;-59
2022/02/01 03:59:45;;;;;;;7.40;2.30;;;1.20;99.90;;;;;;5018896;28;20280;-59
2022/02/01 04:02:11;;;;;;;7.60;2.90;;;1.20;99.90;;;;;;5019445;28;20171;-59
2022/02/01 04:04:36;;;;;;;9.60;2.83;;;1.20;99.90;;;;;;5020382;28;20477;-59
2022/02/01 04:07:07;;;;;;;6.87;2.17;;;1.10;99.90;;;;;;5018425;28;20913;-59
2022/02/01 04:09:33;;;;;;;5.03;2.80;;;1.10;99.90;;;;;;5020360;28;20181;-59
2022/02/01 04:12:01;;;;;;;3.50;2.07;;;1.10;99.90;;;;;;5015803;28;20433;-59
2022/02/01 04:14:31;;;;;;;6.93;2.40;;;1.10;99.90;;;;;;5021196;28;20995;-58
2022/02/01 04:16:58;;;;;;;7.90;3.77;;;1.10;99.90;;;;;;5020814;28;20444;-58
2022/02/01 04:19:26;;;;;;;4.83;2.30;;;1.10;99.90;;;;;;5017417;28;20498;-58
2022/02/01 04:24:20;;;;;;;4.50;2.60;;;1.10;99.90;;;;;;5017125;28;20425;-59
2022/02/01 04:26:46;;;;;;;10.93;2.70;;;1.10;99.90;;;;;;5018914;28;20511;-57
2022/02/01 04:29:11;;;;;;;3.80;2.40;;;1.10;99.90;;;;;;5018312;28;20213;-59
2022/02/01 04:31:37;;;;;;;7.40;2.53;;;1.10;99.90;;;;;;5020517;28;20215;-58
2022/02/01 04:34:03;;;;;;;8.77;2.63;;;1.10;99.90;;;;;;5021656;28;20216;-60
2022/02/01 04:36:28;;;;;;;5.87;2.50;;;1.10;99.90;;;;;;5010272;28;20214;-59
2022/02/01 04:38:57;;;;;;;8.17;2.70;;;1.10;99.90;;;;;;5024951;28;20694;-59
2022/02/01 04:41:27;;;;;;;9.80;2.90;;;1.10;99.90;;;;;;5026769;28;20639;-58
2022/02/01 04:43:54;;;;;;;8.10;2.57;;;1.00;99.90;;;;;;5012920;28;20509;-59
2022/02/01 04:46:21;;;;;;;6.63;2.30;;;1.00;99.90;;;;;;5023200;28;20983;-58
2022/02/01 04:48:48;;;;;;;16.00;2.90;;;1.00;99.90;;;;;;5021777;28;22269;-59
2022/02/01 04:51:16;;;;;;;5.37;2.43;;;1.00;99.90;;;;;;5023551;28;20483;-59
2022/02/01 04:53:42;;;;;;;8.90;2.47;;;1.00;99.90;;;;;;5017021;28;20468;-60
2022/02/01 04:56:08;;;;;;;7.17;2.77;;;1.00;99.90;;;;;;5015682;28;20438;-58
2022/02/01 04:58:34;;;;;;;8.20;3.90;;;1.00;99.90;;;;;;5011813;28;20436;-57
2022/02/01 05:01:00;;;;;;;8.80;3.23;;;1.00;99.90;;;;;;5014488;28;20174;-56
2022/02/01 05:03:26;;;;;;;10.83;2.97;;;1.00;99.90;;;;;;5016421;28;20359;-57
2022/02/01 05:05:52;;;;;;;9.90;3.33;;;1.00;99.90;;;;;;5017526;28;20522;-60
2022/02/01 05:08:18;;;;;;;15.23;3.00;;;1.10;99.90;;;;;;5014651;28;20182;-61
2022/02/01 05:10:44;;;;;;;14.07;4.43;;;1.10;99.90;;;;;;5014460;28;20555;-59
2022/02/01 05:16:16;;;;;;;13.73;3.30;;;1.10;99.90;;;;;;5017620;28;20371;-59
2022/02/01 05:18:49;;;;;;;12.50;3.33;;;1.10;99.90;;;;;;5016111;28;20459;-59
2022/02/01 05:21:24;;;;;;;13.03;3.87;;;1.10;99.90;;;;;;5017750;28;21091;-59
2022/02/01 05:23:51;;;;;;;8.90;3.77;;;1.10;99.90;;;;;;5014749;28;20437;-59
2022/02/01 05:26:19;;;;;;;6.13;3.00;;;1.00;99.90;;;;;;5017352;28;20976;-59
2022/02/01 05:28:44;;;;;;;7.27;2.73;;;1.00;99.90;;;;;;5012177;28;21068;-59
2022/02/01 05:31:10;;;;;;;12.60;3.20;;;1.00;99.90;;;;;;5009818;28;20574;-60
2022/02/01 05:33:36;;;;;;;9.50;3.00;;;1.00;99.90;;;;;;5018740;28;20183;-61
2022/02/01 05:36:05;;;;;;;11.00;2.80;;;1.00;99.90;;;;;;5019945;28;20472;-59
2022/02/01 05:38:31;;;;;;;12.00;3.00;;;1.00;99.90;;;;;;5011075;28;20551;-59
2022/02/01 05:40:57;;;;;;;5.90;2.87;;;1.00;99.90;;;;;;5013182;28;20524;-60
2022/02/01 05:43:26;;;;;;;11.10;3.17;;;1.10;99.90;;;;;;5016519;28;20434;-59
2022/02/01 05:45:53;;;;;;;7.80;2.80;;;1.10;99.90;;;;;;5022319;28;20452;-59
2022/02/01 05:48:19;;;;;;;4.27;2.50;;;1.00;99.90;;;;;;5014825;28;20950;-60
2022/02/01 05:50:48;;;;;;;10.60;3.73;;;1.00;99.90;;;;;;5019421;28;20499;-60
2022/02/01 05:53:14;;;;;;;9.57;2.83;;;1.00;99.90;;;;;;5017258;28;20462;-59
2022/02/01 05:55:40;;;;;;;10.10;3.63;;;1.00;99.90;;;;;;5014925;28;20453;-60
2022/02/01 05:58:06;;;;;;;13.33;3.10;;;1.00;99.90;;;;;;5012570;28;20472;-60
2022/02/01 06:00:32;;;;;;;21.63;3.43;;;1.00;99.90;;;;;;5018060;28;20489;-61
2022/02/01 06:02:59;;;;;;;9.73;3.10;;;1.00;99.90;;;;;;5014338;28;20224;-60
2022/02/01 06:05:26;;;;;;;9.73;2.70;;;1.00;99.90;;;;;;5012821;28;20316;-59
2022/02/01 06:07:52;;;;;;;11.07;2.70;;;1.00;99.90;;;;;;5011681;28;20432;-60
2022/02/01 06:10:18;;;;;;;9.13;2.70;;;1.00;99.90;;;;;;5014508;28;20437;-59
2022/02/01 06:12:48;;;;;;;17.07;3.13;;;1.00;99.90;;;;;;5015189;28;20191;-61
2022/02/01 06:15:17;;;;;;;11.90;3.40;;;1.00;99.90;;;;;;5015351;28;20457;-60
2022/02/01 06:17:43;;;;;;;6.40;2.70;;;1.00;99.90;;;;;;5016575;28;20439;-58
2022/02/01 06:20:12;;;;;;;12.00;3.00;;;1.00;99.90;;;;;;5016638;28;20551;-59
2022/02/01 06:22:39;;;;;;;8.00;3.03;;;1.00;99.90;;;;;;5017015;28;20528;-59
2022/02/01 06:25:05;;;;;;;7.73;2.77;;;1.00;99.90;;;;;;5017854;28;20543;-60
2022/02/01 06:27:31;;;;;;;13.30;2.87;;;1.00;99.90;;;;;;5020002;28;20458;-59
2022/02/01 06:29:56;;;;;;;7.50;2.47;;;1.00;99.90;;;;;;5020515;28;20876;-59
2022/02/01 06:32:22;;;;;;;7.77;2.90;;;1.00;99.90;;;;;;5020614;28;20431;-59
2022/02/01 06:34:48;;;;;;;9.47;3.30;;;1.00;99.90;;;;;;5025764;28;20241;-59
2022/02/01 06:37:14;;;;;;;16.90;2.63;;;1.00;99.90;;;;;;5018680;28;20196;-58
2022/02/01 06:39:40;;;;;;;3.53;2.17;;;1.00;99.90;;;;;;5021548;28;20211;-59
2022/02/01 06:42:08;;;;;;;17.37;3.40;;;1.00;99.90;;;;;;5022284;28;20181;-60
2022/02/01 06:44:34;;;;;;;7.50;2.77;;;1.00;99.90;;;;;;5018155;28;20483;-59
2022/02/01 06:47:00;;;;;;;13.80;3.40;;;0.90;99.90;;;;;;5020978;28;20495;-59
2022/02/01 06:49:25;;;;;;;8.50;2.70;;;0.90;99.90;;;;;;5016597;28;20842;-59
2022/02/01 06:51:51;;;;;;;16.10;3.00;;;0.90;99.90;;;;;;5016345;28;20182;-59
2022/02/01 06:54:17;;;;;;;11.63;2.80;;;0.90;99.90;;;;;;5017927;28;20234;-60
2022/02/01 06:56:43;;;;;;;8.93;2.87;;;0.90;99.90;;;;;;5018218;28;20179;-59
2022/02/01 06:59:08;;;;;;;12.07;3.00;;;0.90;99.90;;;;;;5018696;28;20209;-59
2022/02/01 07:01:34;;;;;;;13.37;2.93;;;0.90;99.90;;;;;;5019299;28;21986;-60
2022/02/01 07:04:02;;;;;;;5.43;2.30;;;0.90;99.90;;;;;;5021147;28;20273;-58
2022/02/01 07:06:31;;;;;;;7.80;2.90;;;0.90;99.90;;;;;;5017427;28;20469;-60
2022/02/01 07:08:58;;;;;;;8.57;2.97;;;0.80;99.90;;;;;;5016911;28;20646;-59
2022/02/01 07:11:24;;;;;;;5.70;2.90;;;0.80;99.90;;;;;;5016596;28;20428;-59
2022/02/01 07:13:50;;;;;;;9.70;2.17;;;0.90;99.90;;;;;;5018948;28;20440;-58
2022/02/01 07:16:17;;;;;;;10.53;2.60;;;0.90;99.90;;;;;;5016866;28;20525;-60
2022/02/01 07:18:43;;;;;;;10.23;2.93;;;0.90;99.90;;;;;;5017139;28;20184;-59
2022/02/01 07:21:09;;;;;;;12.90;3.20;;;0.90;99.90;;;;;;5018985;28;20439;-59
2022/02/01 07:23:35;;;;;;;15.50;3.13;;;0.90;99.90;;;;;;5016424;28;20187;-59
2022/02/01 07:26:02;;;;;;;11.07;4.00;;;0.90;99.90;;;;;;5017636;28;20342;-58
2022/02/01 07:28:29;;;;;;;8.90;2.90;;;1.00;99.90;;;;;;5015548;28;20431;-60
2022/02/01 07:30:56;;;;;;;7.53;2.60;;;1.00;99.90;;;;;;5017911;28;20959;-59
2022/02/01 07:33:23;;;;;;;9.30;3.00;;;1.00;99.90;;;;;;5018423;28;20433;-59
2022/02/01 07:35:50;;;;;;;17.17;2.90;;;1.00;99.90;;;;;;5018162;28;20533;-59
2022/02/01 07:38:20;;;;;;;10.13;3.00;;;1.00;99.90;;;;;;5019321;28;20660;-60
2022/02/01 07:40:46;;;;;;;12.57;3.63;;;1.00;99.90;;;;;;5019744;28;21046;-60
2022/02/01 07:43:14;;;;;;;13.70;2.70;;;1.00;99.90;;;;;;5018271;28;20437;-60
2022/02/01 07:45:41;;;;;;;12.73;3.37;;;1.00;99.90;;;;;;5023846;28;20276;-59
2022/02/01 07:48:07;;;;;;;10.83;4.73;;;1.10;99.90;;;;;;5024240;28;20432;-60
2022/02/01 07:50:35;;;;;;;12.33;3.33;;;1.10;99.90;;;;;;5012446;28;20437;-61
2022/02/01 07:53:01;;;;;;;7.40;2.53;;;1.10;99.90;;;;;;5022501;28;20456;-60
2022/02/01 07:55:27;;;;;;;10.53;2.97;;;1.10;99.90;;;;;;5016301;28;20842;-60
2022/02/01 07:57:53;;;;;;;7.70;3.30;;;1.10;99.90;;;;;;5025201;28;20269;-59
2022/02/01 08:00:19;;;;;;;7.40;2.57;;;1.10;99.90;;;;;;5021857;28;20629;-59
2022/02/01 08:02:45;;;;;;;8.63;3.10;;;1.10;99.90;;;;;;5021066;28;20448;-60
2022/02/01 08:05:12;;;;;;;5.60;3.10;;;1.10;99.90;;;;;;5026287;28;20194;-60
2022/02/01 08:07:38;;;;;;;7.77;3.40;;;1.10;99.90;;;;;;5024546;28;20573;-61
2022/02/01 08:10:09;;;;;;;10.30;3.80;;;1.10;99.90;;;;;;5025260;28;20943;-58
2022/02/01 08:18:11;;;;;;;13.53;2.87;;;1.20;99.90;;;;;;5024880;28;20444;-60
2022/02/01 08:20:45;;;;;;;8.00;2.90;;;1.20;99.90;;;;;;5026968;28;20471;-61
2022/02/01 08:23:11;;;;;;;12.00;3.07;;;1.20;99.90;;;;;;5025585;28;20433;-60
2022/02/01 08:25:37;;;;;;;11.33;2.97;;;1.20;99.90;;;;;;5020830;28;20471;-60
2022/02/01 08:28:04;;;;;;;12.60;3.20;;;1.30;99.90;;;;;;5025863;28;20189;-60
2022/02/01 08:30:30;;;;;;;12.33;3.00;;;1.30;99.90;;;;;;5024636;28;20464;-63
2022/02/01 08:32:56;;;;;;;11.90;3.20;;;1.30;99.90;;;;;;5025881;28;20504;-60
2022/02/01 08:35:22;;;;;;;10.70;4.40;;;1.40;99.90;;;;;;5035050;23;20453;-58
2022/02/01 08:37:48;;;;;;;13.60;3.83;;;1.40;99.90;;;;;;5021254;28;20528;-59
2022/02/01 08:40:16;;;;;;;19.00;4.77;;;1.40;99.90;;;;;;5023524;28;20941;-58
2022/02/01 08:42:48;;;;;;;5.73;2.90;;;1.40;99.90;;;;;;5022321;28;20708;-59
2022/02/01 08:45:20;;;;;;;17.77;4.20;;;1.50;99.90;;;;;;5023258;28;20418;-59
2022/02/01 08:47:46;;;;;;;9.77;3.90;;;1.50;99.90;;;;;;5001462;28;20430;-59
2022/02/01 08:50:12;;;;;;;11.43;3.90;;;1.50;99.90;;;;;;5004253;28;20437;-60
2022/02/01 08:52:42;;;;;;;14.30;3.30;;;1.50;99.90;;;;;;5007093;28;20189;-59
2022/02/01 08:55:19;;;;;;;10.23;3.23;;;1.50;99.90;;;;;;5002366;28;20454;-59
2022/02/01 08:57:46;;;;;;;5.17;2.30;;;1.50;99.90;;;;;;5005538;28;20436;-59
2022/02/01 09:00:15;;;;;;;7.57;2.97;;;1.40;99.90;;;;;;5002454;28;20455;-59
2022/02/01 09:02:42;;;;;;;11.20;3.07;;;1.50;99.90;;;;;;5010032;28;21057;-60
2022/02/01 09:05:09;;;;;;;4.67;2.10;;;1.50;99.90;;;;;;5010889;28;20422;-58
2022/02/01 09:07:34;;;;;;;14.93;3.00;;;1.50;99.90;;;;;;5006186;28;20437;-60
2022/02/01 09:10:00;;;;;;;8.53;3.40;;;1.60;99.90;;;;;;5009595;28;20493;-60
2022/02/01 09:12:26;;;;;;;6.27;2.30;;;1.70;99.90;;;;;;5012505;28;20194;-60
2022/02/01 09:14:51;;;;;;;6.40;3.40;;;1.70;97.80;;;;;;5002897;28;20179;-58
2022/02/01 09:17:19;;;;;;;11.50;3.60;;;1.70;97.60;;;;;;5004134;28;20206;-57
2022/02/01 09:19:45;;;;;;;8.10;3.67;;;1.70;96.50;;;;;;5009648;28;20202;-57
2022/02/01 09:22:13;;;;;;;5.30;3.03;;;1.60;97.40;;;;;;5005782;28;20801;-57
2022/02/01 09:24:41;;;;;;;4.80;2.50;;;1.60;97.90;;;;;;5003280;28;20190;-58
2022/02/01 09:27:07;;;;;;;6.60;2.50;;;1.60;98.50;;;;;;5000005;28;20453;-58
2022/02/01 09:29:33;;;;;;;6.13;2.20;;;1.60;97.90;;;;;;5009009;28;20452;-58
2022/02/01 09:32:00;;;;;;;6.90;3.03;;;1.60;98.50;;;;;;5014457;28;20449;-57
2022/02/01 09:34:26;;;;;;;8.40;3.17;;;1.70;98.60;;;;;;5007955;28;20530;-58
2022/02/01 09:36:53;;;;;;;9.90;3.53;;;1.70;98.50;;;;;;5009432;28;20560;-59
2022/02/01 09:39:20;;;;;;;4.90;2.97;;;1.70;97.00;;;;;;5009824;28;20280;-58
2022/02/01 09:41:46;;;;;;;6.23;3.53;;;1.70;97.30;;;;;;5005481;28;20513;-60
2022/02/01 09:44:12;;;;;;;8.43;2.63;;;1.70;97.20;;;;;;5008332;28;20503;-60
2022/02/01 09:46:38;;;;;;;6.83;3.47;;;1.70;95.60;;;;;;5013504;28;20479;-58
2022/02/01 09:49:08;;;;;;;6.10;3.50;;;1.70;96.00;;;;;;5013599;28;20170;-56
2022/02/01 09:51:34;;;;;;;10.70;4.27;;;1.60;97.10;;;;;;5011392;28;20179;-59
2022/02/01 09:53:59;;;;;;;5.43;3.13;;;1.70;97.70;;;;;;5009649;28;20442;-58
2022/02/01 09:56:25;;;;;;;7.50;2.93;;;1.70;97.20;;;;;;5012758;28;20455;-58
2022/02/01 09:58:55;;;;;;;4.43;2.43;;;1.70;96.80;;;;;;5011632;28;20173;-58
2022/02/01 10:01:25;;;;;;;5.47;2.87;;;1.70;95.00;;;;;;5013770;28;20453;-58
2022/02/01 10:04:07;;;;;;;8.23;2.70;;;1.70;95.60;;;;;;5016197;28;20417;-59
2022/02/01 10:06:36;;;;;;;9.43;3.10;;;1.70;95.00;;;;;;5013814;28;20445;-57
2022/02/01 10:09:07;;;;;;;8.70;2.90;;;1.70;94.20;;;;;;5013447;28;20423;-59
2022/02/01 10:11:48;;;;;;;6.40;2.20;;;1.70;95.30;;;;;;5013028;28;20426;-59
2022/02/01 10:14:29;;;;;;;4.90;2.40;;;1.70;95.10;;;;;;5013235;28;20429;-58
2022/02/01 10:16:57;;;;;;;7.97;2.43;;;1.80;95.10;;;;;;5011938;28;20453;-58
2022/02/01 10:19:23;;;;;;;3.30;2.17;;;1.90;92.70;;;;;;5012145;28;20461;-59
2022/02/01 10:21:57;;;;;;;5.60;2.17;;;1.90;91.60;;;;;;5008355;28;20909;-58
2022/02/01 10:24:38;;;;;;;4.07;3.00;;;1.90;91.60;;;;;;5008312;28;20185;-57
2022/02/01 10:27:27;;;;;;;5.00;2.10;;;1.90;91.30;;;;;;5007902;28;20446;-58
2022/02/01 10:30:13;;;;;;;3.77;2.70;;;1.90;92.20;;;;;;5008963;28;20880;-57
2022/02/01 10:38:11;;;;;;;6.53;2.07;;;2.10;88.70;;;;;;5009845;28;20469;-59
2022/02/01 10:40:45;;;;;;;4.27;2.13;;;2.10;89.00;;;;;;5009759;28;20490;-59
2022/02/01 10:43:28;;;;;;;8.73;2.20;;;2.10;90.10;;;;;;5004885;28;20484;-58
2022/02/01 10:46:07;;;;;;;5.53;2.17;;;2.10;87.00;;;;;;5005893;28;21302;-57
2022/02/01 10:48:33;;;;;;;13.00;2.80;;;2.20;86.50;;;;;;5008048;28;20440;-58
2022/02/01 10:51:17;;;;;;;8.83;3.50;;;2.20;90.10;;;;;;5008949;28;20443;-58
2022/02/01 10:53:43;;;;;;;8.37;2.90;;;2.20;91.10;;;;;;5014011;28;20448;-60
2022/02/01 10:56:12;;;;;;;11.63;3.30;;;2.20;90.90;;;;;;5022744;28;20455;-60
2022/02/01 10:58:38;;;;;;;10.17;3.17;;;2.30;92.50;;;;;;5022946;28;20446;-61
2022/02/01 11:01:05;;;;;;;10.00;2.80;;;2.30;93.30;;;;;;5030751;28;20467;-60
2022/02/01 11:03:31;;;;;;;7.43;2.97;;;2.30;93.90;;;;;;5014867;28;20440;-59
2022/02/01 11:06:00;;;;;;;10.97;2.97;;;2.20;94.50;;;;;;5030073;28;20434;-60
2022/02/01 11:08:30;;;;;;;4.93;2.67;;;2.20;93.80;;;;;;5034533;28;20516;-61
2022/02/01 11:11:00;;;;;;;10.87;2.93;;;2.10;94.10;;;;;;5033404;28;20739;-59
2022/02/01 11:13:38;;;;;;;5.80;2.73;;;2.00;94.80;;;;;;5021994;28;20429;-59
2022/02/01 11:16:06;;;;;;;17.57;3.10;;;1.90;96.20;;;;;;5026165;28;20469;-61
2022/02/01 11:18:32;;;;;;;6.80;2.80;;;1.90;97.20;;;;;;5028329;28;20801;-61
2022/02/01 11:21:14;;;;;;;6.53;3.07;;;1.90;97.40;;;;;;5027386;28;20468;-60
2022/02/01 11:24:02;;;;;;;8.40;4.20;;;1.90;97.50;;;;;;5032621;28;20433;-60
2022/02/01 11:26:35;;;;;;;7.40;3.30;;;1.80;98.10;;;;;;5030056;28;20457;-60
2022/02/01 11:31:54;;;;;;;5.47;2.70;;;1.90;98.30;;;;;;5008553;28;20433;-58
2022/02/01 11:34:26;;;;;;;8.83;2.93;;;1.90;97.60;;;;;;5006640;28;20965;-58
2022/02/01 11:37:03;;;;;;;12.03;4.63;;;1.90;97.60;;;;;;5005213;28;20502;-58
2022/02/01 11:39:31;;;;;;;28.47;14.33;;;2.00;98.80;;;;;;5005182;28;20473;-59
2022/02/01 11:41:57;;;;;;;5.10;3.30;;;2.00;98.10;;;;;;5007881;28;21216;-59
2022/02/01 11:44:25;;;;;;;8.73;4.40;;;2.00;97.60;;;;;;5008373;28;20420;-62
2022/02/01 11:47:21;;;;;;;4.83;2.20;;;2.00;95.50;;;;;;5004413;28;20573;-59
2022/02/01 11:49:55;;;;;;;9.13;3.73;;;2.00;94.40;;;;;;4997436;28;20435;-60
2022/02/01 11:52:22;;;;;;;5.00;3.00;;;2.10;93.70;;;;;;5007609;28;20429;-60
2022/02/01 11:54:58;;;;;;;5.67;2.37;;;2.20;91.90;;;;;;5006790;28;20438;-59
2022/02/01 11:57:29;;;;;;;4.23;2.80;;;2.20;90.90;;;;;;5003481;28;20835;-59
2022/02/01 11:59:56;;;;;;;8.63;2.90;;;2.20;90.70;;;;;;5017269;28;20511;-61
2022/02/01 12:02:36;;;;;;;6.13;2.63;;;2.30;89.20;;;;;;5026981;28;20434;-62
2022/02/01 12:05:08;;;;;;;3.27;2.30;;;2.20;87.90;;;;;;5031040;28;20417;-60
2022/02/01 12:08:14;;;;;;;4.27;2.80;;;2.20;90.20;;;;;;5029713;28;20472;-60
2022/02/01 12:10:40;;;;;;;6.10;2.77;;;2.20;90.50;;;;;;5007769;28;20444;-60
2022/02/01 12:13:06;;;;;;;6.80;3.20;;;2.20;91.20;;;;;;4994818;28;20440;-59
2022/02/01 12:15:35;;;;;;;8.10;2.87;;;2.30;91.10;;;;;;5001265;28;20465;-58
2022/02/01 12:18:12;;;;;;;7.50;2.97;;;2.40;90.00;;;;;;4999534;28;20451;-57
2022/02/01 12:20:43;;;;;;;5.00;2.90;;;2.40;90.10;;;;;;5002251;28;20560;-59
2022/02/01 12:23:23;;;;;;;12.17;2.90;;;2.50;89.40;;;;;;5000526;28;20527;-61
2022/02/01 12:25:50;;;;;;;13.07;2.90;;;2.40;89.10;;;;;;5003375;28;20765;-58
2022/02/01 12:28:25;;;;;;;6.90;2.50;;;2.40;89.00;;;;;;5000812;28;20474;-58
2022/02/01 12:30:52;;;;;;;8.03;2.50;;;2.40;86.50;;;;;;5003129;28;20427;-59
2022/02/01 12:33:24;;;;;;;8.80;2.80;;;2.30;87.80;;;;;;5000495;28;20950;-59
2022/02/01 12:35:54;;;;;;;5.70;2.70;;;2.30;89.70;;;;;;5003282;28;20541;-58
2022/02/01 12:38:24;;;;;;;7.70;3.23;;;2.30;87.30;;;;;;5011092;28;20410;-60
2022/02/01 12:41:02;;;;;;;4.67;2.63;;;2.30;87.80;;;;;;5017816;28;20511;-60
2022/02/01 12:43:32;;;;;;;5.17;3.80;;;2.30;87.10;;;;;;5019402;28;20435;-59
2022/02/01 12:48:47;;;;;;;6.50;2.73;;;2.20;86.10;;;;;;5018474;28;20516;-60
2022/02/01 12:51:13;;;;;;;5.60;2.23;;;2.10;83.10;;;;;;5018354;28;20414;-58
2022/02/01 12:53:45;;;;;;;5.53;2.43;;;2.00;83.30;;;;;;5023058;28;20678;-60
2022/02/01 12:56:22;;;;;;;12.90;2.20;;;1.90;83.50;;;;;;5029681;28;20773;-59
2022/02/01 12:58:54;;;;;;;3.00;1.90;;;1.90;81.80;;;;;;5026050;28;21000;-59
2022/02/01 13:01:31;;;;;;;3.60;2.17;;;1.90;83.90;;;;;;5005526;28;20528;-59
2022/02/01 13:03:56;;;;;;;4.60;1.93;;;1.90;84.20;;;;;;5003832;28;20424;-58
2022/02/01 13:06:23;;;;;;;5.07;2.23;;;1.90;83.60;;;;;;5009982;28;20447;-59
2022/02/01 13:15:14;;;;;;;7.27;2.70;;;1.80;87.10;;;;;;5001595;28;20433;-59
2022/02/01 13:17:47;;;;;;;9.27;2.97;;;1.80;87.60;;;;;;5005821;28;20429;-60
2022/02/01 13:20:20;;;;;;;3.80;1.90;;;1.80;86.90;;;;;;5001637;28;20462;-59
2022/02/01 13:22:54;;;;;;;4.40;1.97;;;1.80;85.00;;;;;;5004220;28;20517;-58
2022/02/01 13:25:29;;;;;;;3.00;1.97;;;1.80;86.20;;;;;;5010135;28;20539;-58
2022/02/01 13:27:56;;;;;;;2.77;2.40;;;1.80;84.20;;;;;;5011004;28;20525;-59
2022/02/01 13:30:22;;;;;;;3.70;2.00;;;1.70;84.60;;;;;;5006324;28;20465;-60
2022/02/01 13:32:50;;;;;;;5.33;1.67;;;1.60;85.90;;;;;;5006823;28;20461;-60
2022/02/01 13:35:15;;;;;;;5.47;2.40;;;1.60;86.30;;;;;;5008309;28;20714;-60
2022/02/01 13:37:46;;;;;;;6.13;1.77;;;1.60;85.50;;;;;;5013563;28;20469;-59
2022/02/01 13:40:29;;;;;;;2.57;2.00;;;1.50;85.50;;;;;;5012451;28;20301;-59
2022/02/01 13:42:57;;;;;;;4.40;2.03;;;1.50;86.60;;;;;;5009586;28;20448;-60
2022/02/01 13:45:36;;;;;;;4.83;2.40;;;1.50;89.70;;;;;;5007259;28;20521;-60
2022/02/01 13:48:02;;;;;;;9.47;2.47;;;1.50;90.50;;;;;;5010591;28;20430;-60
2022/02/01 13:50:28;;;;;;;2.90;2.10;;;1.50;90.20;;;;;;5009986;28;20437;-60
2022/02/01 13:53:03;;;;;;;2.80;1.90;;;1.60;90.00;;;;;;5010298;28;20794;-60
2022/02/01 13:55:31;;;;;;;3.13;1.90;;;1.60;90.70;;;;;;5007794;28;20444;-60
2022/02/01 13:58:08;;;;;;;3.70;2.27;;;1.60;90.00;;;;;;5002241;28;20442;-60
2022/02/01 14:00:37;;;;;;;8.57;1.73;;;1.50;90.40;;;;;;5015348;28;20468;-62
2022/02/01 14:03:23;;;;;;;5.30;2.00;;;1.40;90.10;;;;;;5004663;28;20421;-60
2022/02/01 14:06:16;;;;;;;9.70;2.13;;;1.40;91.60;;;;;;5010023;28;20505;-66
2022/02/01 14:08:53;;;;;;;5.60;2.00;;;1.30;93.30;;;;;;5011168;28;20518;-59
2022/02/01 14:22:49;;;;;;;7.53;1.93;;;1.20;99.20;;;;;;5001996;28;20445;-59
2022/02/01 14:28:19;;;;;;;3.90;2.23;;;1.20;99.30;;;;;;4971309;28;20433;-58
2022/02/01 14:33:35;;;;;;;4.07;2.43;;;1.10;99.90;;;;;;5003807;28;20524;-59
2022/02/01 14:46:12;;;;;;;4.87;2.50;;;1.10;99.90;;;;;;5025008;28;20438;-61
2022/02/01 14:48:38;;;;;;;10.53;2.70;;;1.10;99.90;;;;;;5019934;28;20273;-61
2022/02/01 14:51:06;;;;;;;5.90;3.07;;;1.10;99.90;;;;;;5018477;28;20202;-61
2022/02/01 14:53:32;;;;;;;9.07;3.30;;;1.00;99.90;;;;;;5033186;28;20200;-61
2022/02/01 14:56:08;;;;;;;15.43;2.40;;;1.00;99.90;;;;;;5025200;28;20428;-60
2022/02/01 15:07:05;;;;;;;5.17;2.23;;;1.00;99.90;;;;;;5022024;28;20654;-62
2022/02/01 15:12:40;;;;;;;9.00;2.33;;;1.00;99.90;;;;;;5024885;28;20571;-62
2022/02/01 15:15:08;;;;;;;3.60;2.00;;;1.00;99.90;;;;;;5019090;28;20816;-62
2022/02/01 15:17:34;;;;;;;2.40;2.20;;;1.00;99.90;;;;;;5019283;28;20860;-62
2022/02/01 15:20:01;;;;;;;3.07;2.10;;;1.00;99.90;;;;;;5020617;28;20935;-62
2022/02/01 15:22:27;;;;;;;5.00;2.63;;;1.00;99.90;;;;;;5022525;28;21002;-62
2022/02/01 15:24:53;;;;;;;4.50;1.90;;;1.00;99.90;;;;;;5025476;28;20941;-58